createdAt,value
2022-12-25T00:01:52.696Z,90.72
2022-12-25T00:04:55.083Z,99.32
2022-12-25T00:07:57.147Z,102.53
2022-12-25T00:11:05.905Z,71.88
2022-12-25T00:14:07.970Z,79.47
2022-12-25T00:17:09.941Z,81.35
2022-12-25T00:20:12.015Z,78.53
2022-12-25T00:23:15.266Z,77.65
2022-12-25T00:26:17.973Z,76.57
2022-12-25T00:29:20.269Z,90.32
2022-12-25T00:32:22.382Z,96.22
2022-12-25T00:35:24.269Z,82.95
2022-12-25T00:38:26.849Z,91.00
2022-12-25T00:41:47.706Z,95.32
2022-12-25T00:44:51.972Z,100.28
2022-12-25T00:47:54.284Z,96.78
2022-12-25T00:50:58.745Z,92.43
2022-12-25T00:54:00.944Z,91.78
2022-12-25T00:57:03.499Z,90.22
2022-12-25T01:00:06.064Z,86.40
2022-12-25T01:03:10.371Z,90.80
2022-12-25T01:06:13.283Z,103.60
2022-12-25T01:09:34.984Z,103.47
2022-12-25T01:12:40.150Z,98.63
2022-12-25T01:15:42.507Z,98.32
2022-12-25T01:18:47.006Z,100.82
2022-12-25T01:21:48.997Z,98.65
2022-12-25T01:24:51.120Z,104.18
2022-12-25T01:27:53.157Z,93.82
2022-12-25T01:30:55.149Z,103.70
2022-12-25T01:33:57.337Z,97.57
2022-12-25T01:36:59.491Z,92.22
2022-12-25T01:40:02.342Z,87.00
2022-12-25T01:43:05.226Z,91.65
2022-12-25T01:46:07.463Z,87.10
2022-12-25T01:49:25.185Z,86.47
2022-12-25T01:52:27.390Z,75.07
2022-12-25T01:55:30.654Z,79.03
2022-12-25T01:58:33.578Z,79.80
2022-12-25T02:01:36.178Z,70.03
2022-12-25T02:04:52.332Z,84.85
2022-12-25T02:07:55.962Z,79.40
2022-12-25T02:10:58.839Z,93.20
2022-12-25T02:14:01.848Z,95.22
2022-12-25T02:17:39.435Z,95.38
2022-12-25T02:21:00.147Z,98.82
2022-12-25T02:24:40.255Z,90.68
2022-12-25T02:28:04.269Z,89.60
2022-12-25T02:31:39.194Z,91.65
2022-12-25T02:34:44.404Z,97.03
2022-12-25T02:37:56.077Z,84.10
2022-12-25T02:41:02.535Z,86.15
2022-12-25T02:44:30.884Z,83.95
2022-12-25T02:47:53.022Z,81.28
2022-12-25T02:51:15.784Z,84.70
2022-12-25T02:54:40.993Z,80.20
2022-12-25T02:58:07.580Z,82.85
2022-12-25T03:01:37.543Z,75.80
2022-12-25T03:04:58.139Z,72.75
2022-12-25T03:08:05.172Z,69.68
2022-12-25T03:11:29.197Z,61.95
2022-12-25T03:14:49.658Z,54.05
2022-12-25T03:17:54.907Z,66.75
2022-12-25T03:21:18.229Z,68.07
2022-12-25T03:24:40.183Z,59.33
2022-12-25T03:27:58.174Z,61.22
2022-12-25T03:34:53.088Z,50.53
2022-12-25T03:38:25.793Z,52.37
2022-12-25T03:42:06.359Z,54.25
2022-12-25T03:45:31.519Z,50.15
2022-12-25T03:48:58.490Z,50.65
2022-12-25T03:52:21.839Z,49.05
2022-12-25T03:55:45.159Z,52.08
2022-12-25T03:59:21.111Z,50.22
2022-12-25T04:02:44.644Z,39.17
2022-12-25T04:06:05.352Z,46.38
2022-12-25T04:09:26.113Z,42.83
2022-12-25T04:12:46.877Z,39.67
2022-12-25T04:16:07.788Z,38.72
2022-12-25T04:19:28.885Z,41.58
2022-12-25T04:22:49.520Z,33.95
2022-12-25T04:26:10.207Z,34.03
2022-12-25T04:29:30.848Z,34.38
2022-12-25T04:32:51.812Z,39.83
2022-12-25T04:36:12.977Z,25.42
2022-12-25T04:39:15.008Z,27.13
2022-12-25T04:42:18.075Z,36.03
2022-12-25T04:45:20.471Z,23.52
2022-12-25T04:48:23.059Z,19.35
2022-12-25T04:51:25.959Z,22.73
2022-12-25T04:54:28.291Z,25.17
2022-12-25T04:57:30.342Z,20.48
2022-12-25T05:00:32.382Z,20.17
2022-12-25T05:03:34.978Z,17.65
2022-12-25T05:06:37.122Z,17.05
2022-12-25T05:09:41.955Z,19.40
2022-12-25T05:12:44.558Z,16.08
2022-12-25T05:15:46.956Z,14.48
2022-12-25T05:18:51.136Z,19.55
2022-12-25T05:21:55.176Z,19.73
2022-12-25T05:24:57.291Z,15.65
2022-12-25T05:27:59.364Z,15.38
2022-12-25T05:31:01.415Z,18.05
2022-12-25T05:34:03.584Z,15.57
2022-12-25T05:37:05.796Z,10.15
2022-12-25T05:40:11.129Z,8.23
2022-12-25T05:43:13.225Z,9.20
2022-12-25T05:46:15.345Z,7.82
2022-12-25T05:49:17.388Z,8.32
2022-12-25T05:52:19.478Z,7.72
2022-12-25T05:55:21.584Z,6.65
2022-12-25T05:58:23.716Z,5.22
2022-12-25T06:01:28.866Z,7.03
2022-12-25T06:04:31.030Z,6.57
2022-12-25T06:07:33.312Z,6.43
2022-12-25T06:10:36.559Z,7.28
2022-12-25T06:13:41.542Z,5.60
2022-12-25T06:16:43.750Z,9.65
2022-12-25T06:19:46.174Z,6.97
2022-12-25T06:22:49.508Z,7.70
2022-12-25T06:25:51.583Z,8.75
2022-12-25T06:28:53.784Z,9.30
2022-12-25T06:31:57.546Z,5.13
2022-12-25T06:34:59.676Z,7.28
2022-12-25T06:38:07.032Z,5.35
2022-12-25T06:44:14.166Z,6.57
2022-12-25T06:47:16.243Z,8.95
2022-12-25T06:50:18.621Z,10.43
2022-12-25T06:53:20.721Z,8.20
2022-12-25T06:56:25.561Z,9.73
2022-12-25T06:59:27.608Z,14.20
2022-12-25T07:02:30.091Z,7.35
2022-12-25T07:05:32.162Z,9.05
2022-12-25T07:08:36.660Z,7.63
2022-12-25T07:11:38.778Z,7.15
2022-12-25T07:14:42.083Z,7.38
2022-12-25T07:17:44.566Z,6.75
2022-12-25T07:20:46.827Z,9.13
2022-12-25T07:23:50.212Z,8.13
2022-12-25T07:26:53.667Z,5.90
2022-12-25T07:29:55.861Z,6.57
2022-12-25T07:32:57.850Z,8.73
2022-12-25T07:36:01.081Z,11.98
2022-12-25T07:39:05.519Z,7.10
2022-12-25T07:42:07.626Z,7.13
2022-12-25T07:45:13.211Z,6.40
2022-12-25T07:48:16.935Z,11.02
2022-12-25T07:51:19.273Z,11.68
2022-12-25T07:54:21.615Z,16.98
2022-12-25T07:57:26.972Z,8.82
2022-12-25T08:00:32.843Z,9.05
2022-12-25T08:03:35.739Z,10.88
2022-12-25T08:06:41.053Z,8.68
2022-12-25T08:09:45.351Z,7.97
2022-12-25T08:12:47.488Z,7.63
2022-12-25T08:15:49.611Z,7.55
2022-12-25T08:18:51.867Z,7.00
2022-12-25T08:21:53.913Z,10.25
2022-12-25T08:24:56.008Z,10.57
2022-12-25T08:28:01.500Z,8.70
2022-12-25T08:31:18.097Z,7.63
2022-12-25T08:34:20.571Z,8.75
2022-12-25T08:37:22.677Z,8.65
2022-12-25T08:40:26.356Z,7.97
2022-12-25T08:53:54.164Z,14.85
2022-12-25T09:17:19.457Z,14.02
2022-12-25T09:24:19.497Z,9.65
2022-12-25T09:27:53.491Z,8.20
2022-12-25T09:30:55.787Z,12.65
2022-12-25T09:33:58.861Z,10.23
2022-12-25T09:37:01.245Z,9.85
2022-12-25T09:40:04.399Z,11.10
2022-12-25T09:43:06.391Z,6.75
2022-12-25T09:46:15.358Z,10.90
2022-12-25T09:49:39.294Z,12.70
2022-12-25T09:52:52.797Z,13.57
2022-12-25T09:56:12.924Z,12.10
2022-12-25T09:59:25.748Z,9.68
2022-12-25T10:02:34.134Z,9.75
2022-12-25T10:05:49.967Z,10.00
2022-12-25T10:09:03.716Z,8.45
2022-12-25T10:12:27.361Z,10.77
2022-12-25T10:16:07.548Z,14.50
2022-12-25T10:19:34.814Z,18.75
2022-12-25T10:23:00.515Z,13.55
2022-12-25T10:26:17.376Z,12.85
2022-12-25T10:29:20.177Z,10.88
2022-12-25T10:32:23.164Z,13.70
2022-12-25T10:35:28.139Z,12.43
2022-12-25T10:38:30.159Z,13.45
2022-12-25T10:41:53.976Z,16.77
2022-12-25T10:45:01.156Z,21.40
2022-12-25T10:48:08.194Z,13.45
2022-12-25T10:51:13.965Z,17.98
2022-12-25T10:54:28.964Z,9.32
2022-12-25T10:57:48.544Z,16.75
2022-12-25T11:00:58.667Z,15.13
2022-12-25T11:04:01.628Z,13.50
2022-12-25T11:07:08.780Z,12.23
2022-12-25T11:10:35.403Z,9.48
2022-12-25T11:14:03.656Z,11.73
2022-12-25T11:17:10.670Z,14.80
2022-12-25T11:20:21.352Z,13.00
2022-12-25T11:23:26.672Z,13.48
2022-12-25T11:26:36.757Z,11.55
2022-12-25T11:29:53.006Z,9.88
2022-12-25T11:32:58.912Z,12.40
2022-12-25T11:36:07.393Z,12.27
2022-12-25T11:42:34.655Z,12.70
2022-12-25T11:45:46.586Z,11.23
2022-12-25T11:48:58.317Z,11.93
2022-12-25T11:52:00.740Z,12.85
2022-12-25T11:55:11.199Z,15.85
2022-12-25T11:58:28.781Z,17.65
2022-12-25T12:01:57.973Z,16.70
2022-12-25T12:05:21.713Z,17.83
2022-12-25T12:08:23.886Z,17.30
2022-12-25T12:11:53.513Z,14.23
2022-12-25T12:18:30.392Z,14.05
2022-12-25T12:21:35.767Z,10.13
2022-12-25T12:24:43.818Z,19.45
2022-12-25T12:27:46.283Z,11.40
2022-12-25T12:31:03.849Z,13.70
2022-12-25T12:34:06.586Z,14.57
2022-12-25T12:37:21.350Z,13.90
2022-12-25T12:40:38.088Z,15.55
2022-12-25T12:44:07.781Z,11.40
2022-12-25T12:47:48.406Z,11.70
2022-12-25T12:51:06.585Z,12.63
2022-12-25T12:54:25.342Z,13.32
2022-12-25T12:57:32.850Z,12.32
2022-12-25T13:00:52.557Z,11.25
2022-12-25T13:04:30.094Z,17.67
2022-12-25T13:07:56.239Z,10.27
2022-12-25T13:11:21.720Z,11.48
2022-12-25T13:14:33.293Z,10.82
2022-12-25T13:17:45.254Z,10.38
2022-12-25T13:20:57.491Z,13.63
2022-12-25T13:24:10.781Z,18.10
2022-12-25T13:27:29.281Z,11.73
2022-12-25T13:30:31.311Z,13.75
2022-12-25T13:33:46.399Z,19.80
2022-12-25T13:36:51.004Z,11.77
2022-12-25T13:39:53.057Z,12.77
2022-12-25T13:42:59.669Z,13.20
2022-12-25T13:46:01.843Z,12.90
2022-12-25T13:49:14.313Z,9.07
2022-12-25T13:52:21.329Z,16.75
2022-12-25T13:55:30.689Z,10.35
2022-12-25T13:58:39.576Z,11.98
2022-12-25T14:01:45.687Z,10.23
2022-12-25T14:04:47.787Z,6.72
2022-12-25T14:07:56.277Z,8.75
2022-12-25T14:14:15.182Z,16.45
2022-12-25T14:17:24.993Z,17.88
2022-12-25T14:20:43.253Z,14.90
2022-12-25T14:23:49.407Z,13.37
2022-12-25T14:26:59.922Z,13.27
2022-12-25T14:30:04.305Z,12.50
2022-12-25T14:33:15.904Z,13.15
2022-12-25T14:36:29.232Z,13.77
2022-12-25T14:39:39.241Z,12.38
2022-12-25T14:42:42.295Z,11.65
2022-12-25T14:46:03.144Z,13.32
2022-12-25T14:49:28.564Z,11.07
2022-12-25T14:52:46.446Z,14.88
2022-12-25T14:55:59.352Z,18.35
2022-12-25T14:59:03.012Z,18.98
2022-12-25T15:02:10.569Z,19.23
2022-12-25T15:05:38.353Z,12.32
2022-12-25T15:08:40.428Z,18.75
2022-12-25T15:11:44.584Z,13.48
2022-12-25T15:14:46.767Z,11.40
2022-12-25T15:17:50.688Z,14.32
2022-12-25T15:20:56.519Z,12.18
2022-12-25T15:24:00.136Z,17.63
2022-12-25T15:27:03.429Z,24.73
2022-12-25T15:30:10.196Z,18.13
2022-12-25T15:33:14.790Z,21.93
2022-12-25T15:36:24.260Z,25.70
2022-12-25T15:39:26.659Z,16.35
2022-12-25T15:42:30.858Z,21.33
2022-12-25T15:45:33.183Z,26.70
2022-12-25T15:48:40.034Z,24.00
2022-12-25T15:51:43.485Z,14.60
2022-12-25T15:54:45.795Z,17.30
2022-12-25T15:57:48.856Z,17.92
2022-12-25T16:00:52.925Z,21.30
2022-12-25T16:04:16.564Z,24.33
2022-12-25T16:07:37.946Z,19.80
2022-12-25T16:11:16.441Z,19.45
2022-12-25T16:14:22.252Z,16.00
2022-12-25T16:17:27.227Z,16.45
2022-12-25T16:20:32.854Z,17.63
2022-12-25T16:23:34.884Z,14.15
2022-12-25T16:26:48.427Z,30.48
2022-12-25T16:29:58.858Z,22.23
2022-12-25T16:33:13.748Z,21.65
2022-12-25T16:36:26.748Z,20.70
2022-12-25T16:39:29.484Z,18.83
2022-12-25T16:42:31.592Z,21.98
2022-12-25T16:45:45.570Z,17.58
2022-12-25T16:48:49.589Z,20.08
2022-12-25T16:51:52.027Z,21.40
2022-12-25T16:54:54.160Z,18.83
2022-12-25T16:57:57.006Z,16.13
2022-12-25T17:01:13.086Z,19.98
2022-12-25T17:04:15.717Z,17.10
2022-12-25T17:07:18.392Z,18.88
2022-12-25T17:10:21.864Z,16.70
2022-12-25T17:13:27.149Z,13.50
2022-12-25T17:16:36.038Z,19.85
2022-12-25T17:19:39.196Z,19.65
2022-12-25T17:22:41.364Z,17.33
2022-12-25T17:25:43.417Z,17.05
2022-12-25T17:28:52.538Z,15.65
2022-12-25T17:31:56.137Z,17.23
2022-12-25T17:34:58.413Z,17.52
2022-12-25T17:38:02.131Z,27.90
2022-12-25T17:41:06.898Z,21.02
2022-12-25T17:44:10.023Z,30.42
2022-12-25T17:47:12.656Z,24.02
2022-12-25T17:50:22.789Z,22.63
2022-12-25T17:53:39.526Z,19.67
2022-12-25T17:56:57.105Z,20.08
2022-12-25T18:04:15.960Z,24.77
2022-12-25T18:07:29.531Z,85.10
2022-12-25T18:10:38.963Z,18.70
2022-12-25T18:13:43.634Z,22.58
2022-12-25T18:16:47.327Z,14.98
2022-12-25T18:19:51.487Z,19.58
2022-12-25T18:22:53.571Z,15.45
2022-12-25T18:25:56.114Z,14.80
2022-12-25T18:28:58.691Z,17.88
2022-12-25T18:32:01.371Z,15.95
2022-12-25T18:35:03.906Z,17.15
2022-12-25T18:38:11.688Z,20.30
2022-12-25T18:41:14.687Z,13.93
2022-12-25T18:44:17.023Z,16.33
2022-12-25T18:47:19.311Z,18.17
2022-12-25T18:50:21.664Z,13.40
2022-12-25T18:53:24.131Z,11.23
2022-12-25T18:56:26.117Z,15.82
2022-12-25T18:59:29.885Z,16.58
2022-12-25T19:02:32.076Z,15.57
2022-12-25T19:05:37.165Z,15.05
2022-12-25T19:08:39.268Z,15.38
2022-12-25T19:11:46.594Z,14.23
2022-12-25T19:14:49.704Z,14.43
2022-12-25T19:17:51.884Z,13.05
2022-12-25T19:20:53.964Z,9.02
2022-12-25T19:23:56.243Z,12.13
2022-12-25T19:26:58.344Z,15.32
2022-12-25T19:30:00.477Z,13.73
2022-12-25T19:33:02.587Z,11.95
2022-12-25T19:36:07.607Z,11.85
2022-12-25T19:39:11.847Z,10.52
2022-12-25T19:42:16.149Z,15.25
2022-12-25T19:45:18.299Z,8.20
2022-12-25T19:48:25.153Z,10.80
2022-12-25T19:51:29.599Z,13.57
2022-12-25T19:54:31.728Z,11.70
2022-12-25T19:57:36.808Z,12.90
2022-12-25T20:00:40.563Z,13.85
2022-12-25T20:03:46.744Z,12.00
2022-12-25T20:06:48.984Z,12.45
2022-12-25T20:09:51.113Z,9.57
2022-12-25T20:13:02.148Z,13.70
2022-12-25T20:16:06.362Z,10.38
2022-12-25T20:19:10.052Z,9.32
2022-12-25T20:22:12.447Z,13.20
2022-12-25T20:25:14.559Z,12.57
2022-12-25T20:28:16.651Z,10.93
2022-12-25T20:31:22.747Z,13.55
2022-12-25T20:34:25.525Z,10.40
2022-12-25T20:37:27.544Z,13.25
2022-12-25T20:40:37.578Z,13.90
2022-12-25T20:43:52.516Z,11.35
2022-12-25T20:46:55.034Z,13.23
2022-12-25T20:49:57.856Z,17.02
2022-12-25T20:53:00.004Z,12.27
2022-12-25T20:56:03.957Z,13.57
2022-12-25T20:59:06.222Z,9.48
2022-12-25T21:02:10.990Z,13.77
2022-12-25T21:05:33.935Z,14.65
2022-12-25T21:08:37.283Z,11.98
2022-12-25T21:11:39.599Z,12.23
2022-12-25T21:14:41.659Z,17.60
2022-12-25T21:17:43.800Z,11.13
2022-12-25T21:20:51.104Z,13.63
2022-12-25T21:23:55.449Z,12.93
2022-12-25T21:26:57.489Z,12.30
2022-12-25T21:29:59.574Z,13.70
2022-12-25T21:33:35.448Z,11.80
2022-12-25T21:36:40.049Z,11.77
2022-12-25T21:39:43.728Z,13.35
2022-12-25T21:42:46.001Z,11.10
2022-12-25T21:45:48.055Z,10.55
2022-12-25T21:48:50.674Z,10.63
2022-12-25T21:52:07.912Z,10.80
2022-12-25T21:55:10.149Z,9.10
2022-12-25T21:58:12.912Z,11.43
2022-12-25T22:01:18.094Z,11.57
2022-12-25T22:04:22.801Z,13.73
2022-12-25T22:07:27.206Z,13.60
2022-12-25T22:10:31.169Z,13.00
2022-12-25T22:13:51.877Z,13.50
2022-12-25T22:17:12.527Z,9.63
2022-12-25T22:20:31.652Z,14.73
2022-12-25T22:23:33.744Z,11.70
2022-12-25T22:26:36.029Z,12.02
2022-12-25T22:29:38.278Z,12.32
2022-12-25T22:32:41.072Z,11.60
2022-12-25T22:35:43.372Z,15.25
2022-12-25T22:38:45.470Z,20.40
2022-12-25T22:41:48.487Z,14.65
2022-12-25T22:44:50.619Z,12.07
2022-12-25T22:47:52.617Z,11.57
2022-12-25T22:50:54.599Z,14.80
2022-12-25T22:54:03.405Z,11.10
2022-12-25T22:57:06.352Z,14.57
2022-12-25T23:00:09.092Z,8.77
2022-12-25T23:03:11.300Z,10.55
2022-12-25T23:06:13.424Z,7.78
2022-12-25T23:09:24.373Z,10.95
2022-12-25T23:12:45.674Z,9.98
2022-12-25T23:15:48.196Z,10.57
2022-12-25T23:19:09.100Z,10.38
2022-12-25T23:22:31.059Z,11.95
2022-12-25T23:25:53.895Z,11.43
2022-12-25T23:29:14.450Z,12.77
2022-12-25T23:32:24.838Z,11.13
2022-12-25T23:35:27.048Z,10.23
2022-12-25T23:38:29.097Z,10.13
2022-12-25T23:41:31.350Z,10.52
2022-12-25T23:44:34.876Z,10.43
2022-12-25T23:47:36.955Z,10.95
2022-12-25T23:50:39.063Z,9.27
2022-12-25T23:53:41.183Z,12.77
2022-12-25T23:56:43.929Z,10.77
2022-12-25T23:59:46.243Z,11.25
